Huvudsida
METAR-TAF:

METAR-TAF

Flygplatser :

Joensuu flygplats

Joensuu, Finland

latitud: 62-40N, longitud: 029-38E, höjd: 119 m

Aktuellt väderrapport

Denna rapport gjordes för 33 minuter sedan, klockan 07:20 UTC
Vind 7 kt från syd/sydväst, varierande mellan syd och väst/sydväst
Temperatur 11°C
Fuktighet 100%
Tryck 1010 hPa
Sikt: 7000 m
Mulet på en höjd av 700 ft
lätt regn

METAR: EFJO 180720Z AUTO 20007KT 180V250 7000 -RA OVC007 11/11 Q1010

Tid: 10:53 (07:53 UTC)

Väderprognos

Denna rapport gjordes för 5 timmar och 16 minuter sedan, klockan 02:37 UTC
Prognos gäller från 18 kl. 03 UTC till 18 kl. 07 UTC
Vind 8 kt från sydväst
Sikt 10 km eller mer
Brutna moln på en höjd av 700 ft
Temporärt
från 18 kl. 03 UTC till 18 kl. 07 UTC
Sikt: 2000 m
Brutna moln på en höjd av 300 ft
duggregn

TAF: EFJO 180237Z 1803/1807 22008KT 9999 BKN007 TEMPO 1803/1807 2000 DZ BKN003

Aktuella väderrapporter och prognoser från 4000 flygplatser (METAR- och TAF-rapporter).

De tillgängliga stationerna syns som gula och röda prickar på kartan.

För musen över prickarna för att se namnen på stationerna.

Klicka sedan för att få väderrapporter och prognoser.

För att ändra kartan: Klicka på de gröna knapparna med ett svart kors på för att zooma in; den gröna knappen med ett streck på för att zooma ut; eller på de gröna pilarna för angränsande kartor.


METAR-TAF: